Record high temperature 37.4°C Record low temperature -14.6°C Record high gust 68.5 km/h Record high average 47.2 km/h Record daily rain 55.3 mm Record low windchill -17.5°C Record high barometer 1045.0 hPa Record low barometer 970.0 hPa
Daily high pressure 1024.0 hPa Daily low pressure 1022.0 hPa Daily low windchill 10.7°C Daily high heat index 28.3°C Daily high gust speed 14.4 kmh NNW Daily high average speed 10.4 kmh NW

This page is updated from recent data collected by a WMR200 weather station Use the Reload or Refresh facility on your browser to retrieve the latest data.

Status report of weather station: Bienvenue sur la Station Météo de Godarville



Weather report/warning/Metars

Alexandroupoli Airport , Greece (LGAL) 40-51N 025-55E 3M
Apr 20, 2018 - 11:20 AM EDT / 2018.04.20 1520 UTC
Wind: from the N (010 degrees) at 14 MPH (12 KT):0
Visibility: greater than 7 mile(s):0
Sky conditions: mostly clear
Temperature: 66 F (19 C)
Dew Point: 37 F (3 C)
Relative Humidity: 34%
Pressure (altimeter): 30.06 in. Hg (1018 hPa)
ob: LGAL 201520Z 01012KT 9999 FEW025 19/03 Q1018
cycle: 15

Charleroi / Gosselies, Belgium (EBCI) 50-28N 004-27E 192M
Apr 20, 2018 - 11:20 AM EDT / 2018.04.20 1520 UTC
Wind: from the N (350 degrees) at 7 MPH (6 KT) (direction variable):0
Visibility: greater than 7 mile(s):0
Temperature: 78 F (26 C)
Dew Point: 51 F (11 C)
Relative Humidity: 39%
Pressure (altimeter): 30.18 in. Hg (1022 hPa)
ob: EBCI 201520Z 35006KT 300V010 CAVOK 26/11 Q1022 NOSIG
cycle: 15

Bruxelles National, Belgium (EBBR) 50-54N 004-32E 58M
Apr 20, 2018 - 11:20 AM EDT / 2018.04.20 1520 UTC
Wind: from the WNW (300 degrees) at 9 MPH (8 KT) (direction variable):0
Visibility: greater than 7 mile(s):0
Temperature: 78 F (26 C)
Dew Point: 51 F (11 C)
Relative Humidity: 39%
Pressure (altimeter): 30.18 in. Hg (1022 hPa)
ob: EBBR 201520Z 30008KT 280V340 CAVOK 26/11 Q1022 NOSIG
cycle: 15

Koksijde, Belgium (EBFN) 51-05N 002-39E 9M
Apr 20, 2018 - 11:25 AM EDT / 2018.04.20 1525 UTC
Wind: from the NW (320 degrees) at 9 MPH (8 KT):0
Visibility: greater than 7 mile(s):0
Temperature: 68 F (20 C)
Dew Point: 50 F (10 C)
Relative Humidity: 52%
Pressure (altimeter): 30.21 in. Hg (1023 hPa)
ob: EBFN 201525Z AUTO 32008KT 9999 NCD 20/10 Q1023 BLU
cycle: 15

Poznan, Poland (EPPO) 52-25N 016-50E 92M
Apr 20, 2018 - 11:30 AM EDT / 2018.04.20 1530 UTC
Wind: from the S (180 degrees) at 10 MPH (9 KT) (direction variable):0
Visibility: greater than 7 mile(s):0
Temperature: 75 F (24 C)
Dew Point: 48 F (9 C)
Relative Humidity: 38%
Pressure (altimeter): 30.18 in. Hg (1022 hPa)
ob: EPPO 201530Z 18009KT 170V240 CAVOK 24/09 Q1022 
cycle: 15



Coucher du Soleil:
20:43:48

Lever de Lune:
09:07:43 19/04/18

Coucher de Lune:
00:38:31 20/04/18

Premier Quartier 22 avril 2018
Pleine Lune 30 avril 2018
Dernier Quartier 8 mai 2018
Nouvelle Lune 15 mai 2018
Âge de lune : 4 jours,3 heures,23 minutes,18%
Les heures du jour possible étaient aujourd’hui 14:02